sensor_id;sensor_type;location;lat;lon;timestamp;P1;durP1;ratioP1;P2;durP2;ratioP2
37593;SDS011;23441;50.856;6.076;2023-06-10T00:00:34;11.48;;;9.25;;
37593;SDS011;23441;50.856;6.076;2023-06-10T00:02:59;14.75;;;9.15;;
37593;SDS011;23441;50.856;6.076;2023-06-10T00:05:25;12.90;;;9.32;;
37593;SDS011;23441;50.856;6.076;2023-06-10T00:07:54;11.70;;;8.82;;
37593;SDS011;23441;50.856;6.076;2023-06-10T00:10:21;15.98;;;9.55;;
37593;SDS011;23441;50.856;6.076;2023-06-10T00:12:47;10.15;;;9.10;;
37593;SDS011;23441;50.856;6.076;2023-06-10T00:15:13;16.00;;;9.93;;
37593;SDS011;23441;50.856;6.076;2023-06-10T00:17:38;10.55;;;8.82;;
37593;SDS011;23441;50.856;6.076;2023-06-10T00:20:06;12.52;;;9.23;;
37593;SDS011;23441;50.856;6.076;2023-06-10T00:22:34;14.90;;;9.18;;
37593;SDS011;23441;50.856;6.076;2023-06-10T00:25:00;11.93;;;9.38;;
37593;SDS011;23441;50.856;6.076;2023-06-10T00:27:25;11.07;;;9.32;;
37593;SDS011;23441;50.856;6.076;2023-06-10T00:29:56;10.90;;;9.05;;
37593;SDS011;23441;50.856;6.076;2023-06-10T00:32:22;12.73;;;9.75;;
37593;SDS011;23441;50.856;6.076;2023-06-10T00:34:48;13.88;;;9.88;;
37593;SDS011;23441;50.856;6.076;2023-06-10T00:37:13;12.85;;;8.90;;
37593;SDS011;23441;50.856;6.076;2023-06-10T00:39:39;12.68;;;9.20;;
37593;SDS011;23441;50.856;6.076;2023-06-10T00:42:04;10.50;;;9.15;;
37593;SDS011;23441;50.856;6.076;2023-06-10T00:44:32;11.57;;;9.00;;
37593;SDS011;23441;50.856;6.076;2023-06-10T00:46:57;13.95;;;9.32;;
37593;SDS011;23441;50.856;6.076;2023-06-10T00:49:23;12.65;;;9.43;;
37593;SDS011;23441;50.856;6.076;2023-06-10T00:51:50;12.57;;;9.35;;
37593;SDS011;23441;50.856;6.076;2023-06-10T00:54:17;10.88;;;9.52;;
37593;SDS011;23441;50.856;6.076;2023-06-10T00:56:43;10.95;;;9.70;;
37593;SDS011;23441;50.856;6.076;2023-06-10T00:59:09;13.23;;;10.18;;
37593;SDS011;23441;50.856;6.076;2023-06-10T01:01:35;12.73;;;9.82;;
37593;SDS011;23441;50.856;6.076;2023-06-10T01:04:02;14.32;;;9.30;;
37593;SDS011;23441;50.856;6.076;2023-06-10T01:11:37;10.63;;;9.52;;
37593;SDS011;23441;50.856;6.076;2023-06-10T01:14:11;11.98;;;9.80;;
37593;SDS011;23441;50.856;6.076;2023-06-10T01:16:39;11.07;;;9.93;;
37593;SDS011;23441;50.856;6.076;2023-06-10T01:19:06;12.35;;;10.30;;
37593;SDS011;23441;50.856;6.076;2023-06-10T01:21:32;12.40;;;9.77;;
37593;SDS011;23441;50.856;6.076;2023-06-10T01:23:58;16.95;;;10.40;;
37593;SDS011;23441;50.856;6.076;2023-06-10T01:26:25;11.00;;;9.82;;
37593;SDS011;23441;50.856;6.076;2023-06-10T01:28:58;18.10;;;10.75;;
37593;SDS011;23441;50.856;6.076;2023-06-10T01:34:28;11.88;;;10.48;;
37593;SDS011;23441;50.856;6.076;2023-06-10T01:36:57;12.18;;;10.38;;
37593;SDS011;23441;50.856;6.076;2023-06-10T01:39:24;15.27;;;10.32;;
37593;SDS011;23441;50.856;6.076;2023-06-10T01:41:50;13.15;;;10.55;;
37593;SDS011;23441;50.856;6.076;2023-06-10T01:44:21;13.60;;;11.07;;
37593;SDS011;23441;50.856;6.076;2023-06-10T01:46:48;14.60;;;10.70;;
37593;SDS011;23441;50.856;6.076;2023-06-10T01:49:13;16.63;;;11.23;;
37593;SDS011;23441;50.856;6.076;2023-06-10T01:51:39;17.08;;;11.02;;
37593;SDS011;23441;50.856;6.076;2023-06-10T01:54:05;13.30;;;11.70;;
37593;SDS011;23441;50.856;6.076;2023-06-10T01:56:31;13.57;;;10.73;;
37593;SDS011;23441;50.856;6.076;2023-06-10T01:58:57;13.52;;;10.65;;
37593;SDS011;23441;50.856;6.076;2023-06-10T02:01:24;12.88;;;10.77;;
37593;SDS011;23441;50.856;6.076;2023-06-10T02:03:50;14.85;;;10.70;;
37593;SDS011;23441;50.856;6.076;2023-06-10T02:06:16;14.55;;;10.75;;
37593;SDS011;23441;50.856;6.076;2023-06-10T02:08:42;14.30;;;11.45;;
37593;SDS011;23441;50.856;6.076;2023-06-10T02:11:07;14.35;;;11.73;;
37593;SDS011;23441;50.856;6.076;2023-06-10T02:13:33;17.20;;;11.52;;
37593;SDS011;23441;50.856;6.076;2023-06-10T02:15:59;16.88;;;10.45;;
37593;SDS011;23441;50.856;6.076;2023-06-10T02:18:25;12.15;;;10.73;;
37593;SDS011;23441;50.856;6.076;2023-06-10T02:20:53;12.98;;;11.25;;
37593;SDS011;23441;50.856;6.076;2023-06-10T02:23:18;14.43;;;11.10;;
37593;SDS011;23441;50.856;6.076;2023-06-10T02:25:44;16.52;;;11.63;;
37593;SDS011;23441;50.856;6.076;2023-06-10T02:28:10;13.57;;;11.07;;
37593;SDS011;23441;50.856;6.076;2023-06-10T02:30:38;14.05;;;10.27;;
37593;SDS011;23441;50.856;6.076;2023-06-10T02:33:07;15.70;;;11.05;;
37593;SDS011;23441;50.856;6.076;2023-06-10T02:35:36;14.27;;;11.60;;
37593;SDS011;23441;50.856;6.076;2023-06-10T02:38:05;16.95;;;11.52;;
37593;SDS011;23441;50.856;6.076;2023-06-10T02:40:31;13.55;;;11.18;;
37593;SDS011;23441;50.856;6.076;2023-06-10T02:42:57;15.43;;;11.23;;
37593;SDS011;23441;50.856;6.076;2023-06-10T02:45:23;16.73;;;11.70;;
37593;SDS011;23441;50.856;6.076;2023-06-10T02:47:49;16.30;;;11.20;;
37593;SDS011;23441;50.856;6.076;2023-06-10T02:50:15;14.05;;;11.40;;
37593;SDS011;23441;50.856;6.076;2023-06-10T02:52:41;15.10;;;11.60;;
37593;SDS011;23441;50.856;6.076;2023-06-10T02:55:07;13.05;;;10.57;;
37593;SDS011;23441;50.856;6.076;2023-06-10T02:57:32;13.43;;;11.40;;
37593;SDS011;23441;50.856;6.076;2023-06-10T02:59:58;15.30;;;11.52;;
37593;SDS011;23441;50.856;6.076;2023-06-10T03:02:24;16.92;;;11.25;;
37593;SDS011;23441;50.856;6.076;2023-06-10T03:04:56;19.50;;;12.25;;
37593;SDS011;23441;50.856;6.076;2023-06-10T03:07:22;13.77;;;11.27;;
37593;SDS011;23441;50.856;6.076;2023-06-10T03:09:48;13.85;;;11.75;;
37593;SDS011;23441;50.856;6.076;2023-06-10T03:12:14;14.27;;;11.95;;
37593;SDS011;23441;50.856;6.076;2023-06-10T03:14:40;16.13;;;12.27;;
37593;SDS011;23441;50.856;6.076;2023-06-10T03:17:06;13.73;;;11.50;;
37593;SDS011;23441;50.856;6.076;2023-06-10T03:19:33;18.35;;;12.10;;
37593;SDS011;23441;50.856;6.076;2023-06-10T03:22:12;13.63;;;12.07;;
37593;SDS011;23441;50.856;6.076;2023-06-10T03:24:40;14.70;;;11.88;;
37593;SDS011;23441;50.856;6.076;2023-06-10T03:27:06;16.08;;;11.95;;
37593;SDS011;23441;50.856;6.076;2023-06-10T03:29:33;14.73;;;12.30;;
37593;SDS011;23441;50.856;6.076;2023-06-10T03:31:59;13.98;;;12.15;;
37593;SDS011;23441;50.856;6.076;2023-06-10T03:34:25;15.77;;;12.35;;
37593;SDS011;23441;50.856;6.076;2023-06-10T03:36:50;13.80;;;11.88;;
37593;SDS011;23441;50.856;6.076;2023-06-10T03:39:16;14.30;;;11.75;;
37593;SDS011;23441;50.856;6.076;2023-06-10T03:41:42;15.45;;;13.18;;
37593;SDS011;23441;50.856;6.076;2023-06-10T03:44:07;14.48;;;12.65;;
37593;SDS011;23441;50.856;6.076;2023-06-10T03:46:33;15.80;;;12.55;;
37593;SDS011;23441;50.856;6.076;2023-06-10T03:48:58;15.27;;;12.40;;
37593;SDS011;23441;50.856;6.076;2023-06-10T03:51:28;15.23;;;12.35;;
37593;SDS011;23441;50.856;6.076;2023-06-10T03:53:54;16.35;;;12.35;;
37593;SDS011;23441;50.856;6.076;2023-06-10T03:56:19;13.52;;;11.60;;
37593;SDS011;23441;50.856;6.076;2023-06-10T03:58:45;15.38;;;12.18;;
37593;SDS011;23441;50.856;6.076;2023-06-10T04:01:10;17.05;;;12.57;;
37593;SDS011;23441;50.856;6.076;2023-06-10T04:03:38;17.80;;;12.73;;
37593;SDS011;23441;50.856;6.076;2023-06-10T04:06:04;19.02;;;12.68;;
37593;SDS011;23441;50.856;6.076;2023-06-10T04:08:30;14.35;;;11.77;;
37593;SDS011;23441;50.856;6.076;2023-06-10T04:10:57;15.23;;;12.55;;
37593;SDS011;23441;50.856;6.076;2023-06-10T04:13:23;15.00;;;13.00;;
37593;SDS011;23441;50.856;6.076;2023-06-10T04:15:49;17.23;;;12.88;;
37593;SDS011;23441;50.856;6.076;2023-06-10T04:18:15;14.30;;;12.30;;
37593;SDS011;23441;50.856;6.076;2023-06-10T04:20:41;16.42;;;11.82;;
37593;SDS011;23441;50.856;6.076;2023-06-10T04:23:06;14.65;;;12.70;;
37593;SDS011;23441;50.856;6.076;2023-06-10T04:25:32;13.90;;;12.00;;
37593;SDS011;23441;50.856;6.076;2023-06-10T04:27:58;13.73;;;12.30;;
37593;SDS011;23441;50.856;6.076;2023-06-10T04:30:24;15.18;;;12.35;;
37593;SDS011;23441;50.856;6.076;2023-06-10T04:32:49;14.18;;;12.57;;
37593;SDS011;23441;50.856;6.076;2023-06-10T04:35:15;15.38;;;12.38;;
37593;SDS011;23441;50.856;6.076;2023-06-10T04:37:41;15.68;;;12.73;;
37593;SDS011;23441;50.856;6.076;2023-06-10T04:40:07;15.07;;;13.00;;
37593;SDS011;23441;50.856;6.076;2023-06-10T04:42:33;14.80;;;11.80;;
37593;SDS011;23441;50.856;6.076;2023-06-10T04:44:59;15.75;;;11.50;;
37593;SDS011;23441;50.856;6.076;2023-06-10T04:47:25;14.13;;;12.63;;
37593;SDS011;23441;50.856;6.076;2023-06-10T04:49:51;16.42;;;12.70;;
37593;SDS011;23441;50.856;6.076;2023-06-10T04:52:18;15.05;;;11.95;;
37593;SDS011;23441;50.856;6.076;2023-06-10T04:54:44;13.65;;;11.93;;
37593;SDS011;23441;50.856;6.076;2023-06-10T04:57:10;14.65;;;12.50;;
37593;SDS011;23441;50.856;6.076;2023-06-10T04:59:36;15.65;;;11.82;;
37593;SDS011;23441;50.856;6.076;2023-06-10T05:02:06;14.50;;;11.48;;
37593;SDS011;23441;50.856;6.076;2023-06-10T05:04:31;15.75;;;11.95;;
37593;SDS011;23441;50.856;6.076;2023-06-10T05:06:57;16.42;;;11.60;;
37593;SDS011;23441;50.856;6.076;2023-06-10T05:09:23;16.55;;;12.40;;
37593;SDS011;23441;50.856;6.076;2023-06-10T05:11:48;13.68;;;11.93;;
37593;SDS011;23441;50.856;6.076;2023-06-10T05:14:14;15.18;;;11.60;;
37593;SDS011;23441;50.856;6.076;2023-06-10T05:16:41;23.67;;;12.55;;
37593;SDS011;23441;50.856;6.076;2023-06-10T05:19:08;21.40;;;12.52;;
37593;SDS011;23441;50.856;6.076;2023-06-10T05:21:34;15.85;;;11.82;;
37593;SDS011;23441;50.856;6.076;2023-06-10T05:23:59;15.60;;;11.32;;
37593;SDS011;23441;50.856;6.076;2023-06-10T05:26:25;12.25;;;10.90;;
37593;SDS011;23441;50.856;6.076;2023-06-10T05:28:51;13.70;;;11.38;;
37593;SDS011;23441;50.856;6.076;2023-06-10T05:31:17;10.98;;;9.77;;
37593;SDS011;23441;50.856;6.076;2023-06-10T05:33:43;12.55;;;10.18;;
37593;SDS011;23441;50.856;6.076;2023-06-10T05:36:08;10.98;;;9.82;;
37593;SDS011;23441;50.856;6.076;2023-06-10T05:38:34;10.68;;;9.55;;
37593;SDS011;23441;50.856;6.076;2023-06-10T05:41:00;11.57;;;8.88;;
37593;SDS011;23441;50.856;6.076;2023-06-10T05:43:25;11.82;;;9.48;;
37593;SDS011;23441;50.856;6.076;2023-06-10T05:45:51;11.13;;;9.45;;
37593;SDS011;23441;50.856;6.076;2023-06-10T05:48:17;10.77;;;9.63;;
37593;SDS011;23441;50.856;6.076;2023-06-10T05:50:44;9.98;;;8.20;;
37593;SDS011;23441;50.856;6.076;2023-06-10T05:53:13;10.98;;;8.45;;
37593;SDS011;23441;50.856;6.076;2023-06-10T05:55:42;10.88;;;8.43;;
37593;SDS011;23441;50.856;6.076;2023-06-10T05:58:08;9.30;;;8.27;;
37593;SDS011;23441;50.856;6.076;2023-06-10T06:00:34;10.85;;;8.20;;
37593;SDS011;23441;50.856;6.076;2023-06-10T06:03:00;9.18;;;8.23;;
37593;SDS011;23441;50.856;6.076;2023-06-10T06:05:26;9.82;;;7.68;;
37593;SDS011;23441;50.856;6.076;2023-06-10T06:07:51;13.38;;;8.30;;
37593;SDS011;23441;50.856;6.076;2023-06-10T06:10:17;11.32;;;8.10;;
37593;SDS011;23441;50.856;6.076;2023-06-10T06:12:43;10.40;;;7.90;;
37593;SDS011;23441;50.856;6.076;2023-06-10T06:15:10;10.23;;;7.53;;
37593;SDS011;23441;50.856;6.076;2023-06-10T06:17:36;12.57;;;7.72;;
37593;SDS011;23441;50.856;6.076;2023-06-10T06:20:02;8.63;;;7.07;;
37593;SDS011;23441;50.856;6.076;2023-06-10T06:22:28;8.85;;;7.95;;
37593;SDS011;23441;50.856;6.076;2023-06-10T06:24:54;8.13;;;7.07;;
37593;SDS011;23441;50.856;6.076;2023-06-10T06:27:20;9.10;;;7.50;;
37593;SDS011;23441;50.856;6.076;2023-06-10T06:29:46;11.32;;;7.60;;
37593;SDS011;23441;50.856;6.076;2023-06-10T06:32:12;9.18;;;7.00;;
37593;SDS011;23441;50.856;6.076;2023-06-10T06:34:37;12.50;;;6.97;;
37593;SDS011;23441;50.856;6.076;2023-06-10T06:37:03;8.23;;;7.38;;
37593;SDS011;23441;50.856;6.076;2023-06-10T06:39:29;9.88;;;7.00;;
37593;SDS011;23441;50.856;6.076;2023-06-10T06:41:54;8.00;;;6.65;;
37593;SDS011;23441;50.856;6.076;2023-06-10T06:44:20;7.78;;;7.07;;
37593;SDS011;23441;50.856;6.076;2023-06-10T06:46:45;8.75;;;7.30;;
37593;SDS011;23441;50.856;6.076;2023-06-10T06:49:11;11.43;;;6.70;;
37593;SDS011;23441;50.856;6.076;2023-06-10T06:51:37;9.75;;;6.38;;
37593;SDS011;23441;50.856;6.076;2023-06-10T06:54:02;10.80;;;6.82;;
37593;SDS011;23441;50.856;6.076;2023-06-10T06:56:30;7.65;;;6.20;;
37593;SDS011;23441;50.856;6.076;2023-06-10T06:58:56;10.38;;;6.50;;
37593;SDS011;23441;50.856;6.076;2023-06-10T07:01:22;9.95;;;6.40;;
37593;SDS011;23441;50.856;6.076;2023-06-10T07:03:47;8.25;;;6.03;;
37593;SDS011;23441;50.856;6.076;2023-06-10T07:06:13;9.43;;;6.40;;
37593;SDS011;23441;50.856;6.076;2023-06-10T07:08:39;9.30;;;6.50;;
37593;SDS011;23441;50.856;6.076;2023-06-10T07:11:05;12.80;;;6.45;;
37593;SDS011;23441;50.856;6.076;2023-06-10T07:13:30;12.05;;;6.35;;
37593;SDS011;23441;50.856;6.076;2023-06-10T07:15:56;8.77;;;6.43;;
37593;SDS011;23441;50.856;6.076;2023-06-10T07:18:21;8.60;;;6.20;;
37593;SDS011;23441;50.856;6.076;2023-06-10T07:20:47;9.27;;;6.20;;
37593;SDS011;23441;50.856;6.076;2023-06-10T07:23:13;9.48;;;6.28;;
37593;SDS011;23441;50.856;6.076;2023-06-10T07:25:38;10.50;;;6.00;;
37593;SDS011;23441;50.856;6.076;2023-06-10T07:28:06;7.15;;;5.80;;
37593;SDS011;23441;50.856;6.076;2023-06-10T07:30:32;11.13;;;6.32;;
37593;SDS011;23441;50.856;6.076;2023-06-10T07:32:57;16.23;;;6.50;;
37593;SDS011;23441;50.856;6.076;2023-06-10T07:35:23;9.05;;;6.25;;
37593;SDS011;23441;50.856;6.076;2023-06-10T07:37:49;11.93;;;6.45;;
37593;SDS011;23441;50.856;6.076;2023-06-10T07:40:15;11.00;;;6.38;;
37593;SDS011;23441;50.856;6.076;2023-06-10T07:42:40;12.02;;;6.40;;
37593;SDS011;23441;50.856;6.076;2023-06-10T07:45:07;9.18;;;6.38;;
37593;SDS011;23441;50.856;6.076;2023-06-10T07:47:33;10.43;;;6.38;;
37593;SDS011;23441;50.856;6.076;2023-06-10T07:49:59;10.82;;;6.18;;
37593;SDS011;23441;50.856;6.076;2023-06-10T07:52:25;9.98;;;6.20;;
37593;SDS011;23441;50.856;6.076;2023-06-10T07:54:51;9.75;;;6.30;;
37593;SDS011;23441;50.856;6.076;2023-06-10T07:57:17;10.48;;;6.22;;
37593;SDS011;23441;50.856;6.076;2023-06-10T07:59:42;7.97;;;6.50;;
37593;SDS011;23441;50.856;6.076;2023-06-10T08:02:09;10.75;;;6.63;;
37593;SDS011;23441;50.856;6.076;2023-06-10T08:04:35;11.82;;;6.25;;
37593;SDS011;23441;50.856;6.076;2023-06-10T08:07:00;10.32;;;6.97;;
37593;SDS011;23441;50.856;6.076;2023-06-10T08:09:27;8.57;;;6.50;;
37593;SDS011;23441;50.856;6.076;2023-06-10T08:11:53;8.95;;;6.28;;
37593;SDS011;23441;50.856;6.076;2023-06-10T08:14:19;8.48;;;6.13;;
37593;SDS011;23441;50.856;6.076;2023-06-10T08:16:44;12.73;;;6.75;;
37593;SDS011;23441;50.856;6.076;2023-06-10T08:19:10;9.88;;;6.57;;
37593;SDS011;23441;50.856;6.076;2023-06-10T08:21:36;13.90;;;6.72;;
37593;SDS011;23441;50.856;6.076;2023-06-10T08:24:04;10.95;;;6.40;;
37593;SDS011;23441;50.856;6.076;2023-06-10T08:26:34;9.68;;;6.22;;
37593;SDS011;23441;50.856;6.076;2023-06-10T08:29:00;9.88;;;6.57;;
37593;SDS011;23441;50.856;6.076;2023-06-10T08:31:25;8.85;;;6.72;;
37593;SDS011;23441;50.856;6.076;2023-06-10T08:33:51;7.85;;;6.28;;
37593;SDS011;23441;50.856;6.076;2023-06-10T08:36:17;7.90;;;6.20;;
37593;SDS011;23441;50.856;6.076;2023-06-10T08:38:42;9.93;;;6.25;;
37593;SDS011;23441;50.856;6.076;2023-06-10T08:41:08;8.23;;;5.80;;
37593;SDS011;23441;50.856;6.076;2023-06-10T08:43:54;11.50;;;6.72;;
37593;SDS011;23441;50.856;6.076;2023-06-10T08:46:28;11.15;;;6.35;;
37593;SDS011;23441;50.856;6.076;2023-06-10T08:48:57;10.32;;;6.40;;
37593;SDS011;23441;50.856;6.076;2023-06-10T08:51:28;8.27;;;5.88;;
37593;SDS011;23441;50.856;6.076;2023-06-10T08:54:04;8.02;;;6.00;;
37593;SDS011;23441;50.856;6.076;2023-06-10T08:56:37;12.15;;;6.00;;
37593;SDS011;23441;50.856;6.076;2023-06-10T08:59:05;8.60;;;5.82;;
37593;SDS011;23441;50.856;6.076;2023-06-10T09:01:31;10.05;;;6.30;;
37593;SDS011;23441;50.856;6.076;2023-06-10T09:03:58;9.23;;;6.05;;
37593;SDS011;23441;50.856;6.076;2023-06-10T09:06:24;12.18;;;6.22;;
37593;SDS011;23441;50.856;6.076;2023-06-10T09:08:50;8.13;;;6.13;;
37593;SDS011;23441;50.856;6.076;2023-06-10T09:11:16;8.43;;;6.68;;
37593;SDS011;23441;50.856;6.076;2023-06-10T09:13:42;9.77;;;6.32;;
37593;SDS011;23441;50.856;6.076;2023-06-10T09:16:07;14.45;;;6.28;;
37593;SDS011;23441;50.856;6.076;2023-06-10T09:18:34;8.95;;;6.10;;
37593;SDS011;23441;50.856;6.076;2023-06-10T09:21:00;6.65;;;6.03;;
37593;SDS011;23441;50.856;6.076;2023-06-10T09:23:25;6.88;;;5.38;;
37593;SDS011;23441;50.856;6.076;2023-06-10T09:25:56;7.07;;;5.53;;
37593;SDS011;23441;50.856;6.076;2023-06-10T09:28:22;6.43;;;5.28;;
37593;SDS011;23441;50.856;6.076;2023-06-10T09:30:48;7.68;;;5.78;;
37593;SDS011;23441;50.856;6.076;2023-06-10T09:33:15;9.30;;;5.97;;
37593;SDS011;23441;50.856;6.076;2023-06-10T09:35:45;6.85;;;6.00;;
37593;SDS011;23441;50.856;6.076;2023-06-10T09:38:12;7.43;;;5.63;;
37593;SDS011;23441;50.856;6.076;2023-06-10T09:40:53;6.50;;;5.80;;
37593;SDS011;23441;50.856;6.076;2023-06-10T09:43:19;7.72;;;5.95;;
37593;SDS011;23441;50.856;6.076;2023-06-10T09:45:49;8.90;;;5.93;;
37593;SDS011;23441;50.856;6.076;2023-06-10T09:48:18;10.23;;;6.25;;
37593;SDS011;23441;50.856;6.076;2023-06-10T09:57:31;10.75;;;6.32;;
37593;SDS011;23441;50.856;6.076;2023-06-10T10:00:05;11.48;;;6.75;;
37593;SDS011;23441;50.856;6.076;2023-06-10T10:02:32;9.38;;;6.32;;
37593;SDS011;23441;50.856;6.076;2023-06-10T10:05:12;7.20;;;6.43;;
37593;SDS011;23441;50.856;6.076;2023-06-10T10:07:38;12.90;;;6.93;;
37593;SDS011;23441;50.856;6.076;2023-06-10T10:10:04;9.35;;;7.22;;
37593;SDS011;23441;50.856;6.076;2023-06-10T10:12:31;10.73;;;6.75;;
37593;SDS011;23441;50.856;6.076;2023-06-10T10:14:57;9.38;;;6.75;;
37593;SDS011;23441;50.856;6.076;2023-06-10T10:17:24;9.75;;;7.28;;
37593;SDS011;23441;50.856;6.076;2023-06-10T10:19:52;16.50;;;7.18;;
37593;SDS011;23441;50.856;6.076;2023-06-10T10:22:29;11.57;;;7.20;;
37593;SDS011;23441;50.856;6.076;2023-06-10T10:24:59;11.75;;;6.60;;
37593;SDS011;23441;50.856;6.076;2023-06-10T10:27:33;11.13;;;6.65;;
37593;SDS011;23441;50.856;6.076;2023-06-10T10:30:08;9.40;;;7.10;;
37593;SDS011;23441;50.856;6.076;2023-06-10T10:32:54;14.18;;;6.72;;
37593;SDS011;23441;50.856;6.076;2023-06-10T10:35:28;9.93;;;6.35;;
37593;SDS011;23441;50.856;6.076;2023-06-10T10:37:55;10.68;;;6.93;;
37593;SDS011;23441;50.856;6.076;2023-06-10T10:40:21;11.18;;;6.28;;
37593;SDS011;23441;50.856;6.076;2023-06-10T10:42:48;12.48;;;6.82;;
37593;SDS011;23441;50.856;6.076;2023-06-10T10:45:14;10.38;;;6.93;;
37593;SDS011;23441;50.856;6.076;2023-06-10T10:47:40;9.02;;;6.20;;
37593;SDS011;23441;50.856;6.076;2023-06-10T10:50:14;9.68;;;6.95;;
37593;SDS011;23441;50.856;6.076;2023-06-10T10:55:21;14.75;;;7.00;;
37593;SDS011;23441;50.856;6.076;2023-06-10T10:58:23;7.93;;;6.68;;
37593;SDS011;23441;50.856;6.076;2023-06-10T11:00:44;9.48;;;6.75;;
37593;SDS011;23441;50.856;6.076;2023-06-10T11:03:13;8.98;;;6.47;;
37593;SDS011;23441;50.856;6.076;2023-06-10T11:05:45;7.70;;;6.90;;
37593;SDS011;23441;50.856;6.076;2023-06-10T11:08:45;11.45;;;6.97;;
37593;SDS011;23441;50.856;6.076;2023-06-10T11:16:27;8.98;;;6.47;;
37593;SDS011;23441;50.856;6.076;2023-06-10T11:18:54;10.13;;;6.90;;
37593;SDS011;23441;50.856;6.076;2023-06-10T11:21:20;7.13;;;6.38;;
37593;SDS011;23441;50.856;6.076;2023-06-10T11:23:48;9.32;;;6.55;;
37593;SDS011;23441;50.856;6.076;2023-06-10T11:31:19;9.88;;;7.03;;
37593;SDS011;23441;50.856;6.076;2023-06-10T11:34:05;10.68;;;6.18;;
37593;SDS011;23441;50.856;6.076;2023-06-10T11:36:38;12.13;;;6.78;;
37593;SDS011;23441;50.856;6.076;2023-06-10T11:39:07;8.13;;;6.72;;
37593;SDS011;23441;50.856;6.076;2023-06-10T11:41:34;8.32;;;6.30;;
37593;SDS011;23441;50.856;6.076;2023-06-10T11:44:02;8.40;;;6.43;;
37593;SDS011;23441;50.856;6.076;2023-06-10T11:46:28;12.20;;;7.13;;
37593;SDS011;23441;50.856;6.076;2023-06-10T11:48:55;8.82;;;6.18;;
37593;SDS011;23441;50.856;6.076;2023-06-10T11:51:25;10.43;;;6.28;;
37593;SDS011;23441;50.856;6.076;2023-06-10T11:53:52;10.13;;;6.60;;
37593;SDS011;23441;50.856;6.076;2023-06-10T11:58:57;11.45;;;6.57;;
37593;SDS011;23441;50.856;6.076;2023-06-10T12:01:32;8.70;;;6.60;;
37593;SDS011;23441;50.856;6.076;2023-06-10T12:04:03;6.97;;;6.00;;
37593;SDS011;23441;50.856;6.076;2023-06-10T12:06:40;7.15;;;6.03;;
37593;SDS011;23441;50.856;6.076;2023-06-10T12:09:25;9.82;;;6.45;;
37593;SDS011;23441;50.856;6.076;2023-06-10T12:12:02;6.38;;;5.68;;
37593;SDS011;23441;50.856;6.076;2023-06-10T12:19:59;7.10;;;6.15;;
37593;SDS011;23441;50.856;6.076;2023-06-10T12:22:26;6.72;;;5.53;;
37593;SDS011;23441;50.856;6.076;2023-06-10T12:24:58;6.22;;;5.63;;
37593;SDS011;23441;50.856;6.076;2023-06-10T12:27:26;8.20;;;5.85;;
37593;SDS011;23441;50.856;6.076;2023-06-10T12:29:54;8.45;;;6.25;;
37593;SDS011;23441;50.856;6.076;2023-06-10T12:32:21;6.65;;;5.95;;
37593;SDS011;23441;50.856;6.076;2023-06-10T12:35:03;7.63;;;5.50;;
37593;SDS011;23441;50.856;6.076;2023-06-10T12:37:30;9.20;;;6.10;;
37593;SDS011;23441;50.856;6.076;2023-06-10T12:39:59;8.75;;;5.75;;
37593;SDS011;23441;50.856;6.076;2023-06-10T12:42:27;6.88;;;5.70;;
37593;SDS011;23441;50.856;6.076;2023-06-10T12:44:53;8.55;;;6.05;;
37593;SDS011;23441;50.856;6.076;2023-06-10T12:47:20;7.95;;;5.90;;
37593;SDS011;23441;50.856;6.076;2023-06-10T12:49:53;6.18;;;5.57;;
37593;SDS011;23441;50.856;6.076;2023-06-10T12:52:19;8.18;;;5.78;;
37593;SDS011;23441;50.856;6.076;2023-06-10T12:54:45;7.47;;;5.90;;
37593;SDS011;23441;50.856;6.076;2023-06-10T12:57:10;12.52;;;6.25;;
37593;SDS011;23441;50.856;6.076;2023-06-10T12:59:36;9.45;;;5.97;;
37593;SDS011;23441;50.856;6.076;2023-06-10T13:02:02;9.23;;;6.20;;
37593;SDS011;23441;50.856;6.076;2023-06-10T13:04:28;7.75;;;6.00;;
37593;SDS011;23441;50.856;6.076;2023-06-10T13:06:53;10.68;;;5.90;;
37593;SDS011;23441;50.856;6.076;2023-06-10T13:09:19;7.75;;;5.68;;
37593;SDS011;23441;50.856;6.076;2023-06-10T13:11:45;7.75;;;6.00;;
37593;SDS011;23441;50.856;6.076;2023-06-10T13:14:10;6.40;;;5.80;;
37593;SDS011;23441;50.856;6.076;2023-06-10T13:16:36;6.43;;;5.82;;
37593;SDS011;23441;50.856;6.076;2023-06-10T13:19:03;6.60;;;5.40;;
37593;SDS011;23441;50.856;6.076;2023-06-10T13:21:30;8.98;;;5.88;;
37593;SDS011;23441;50.856;6.076;2023-06-10T13:23:57;6.68;;;5.30;;
37593;SDS011;23441;50.856;6.076;2023-06-10T13:26:22;6.25;;;5.65;;
37593;SDS011;23441;50.856;6.076;2023-06-10T13:28:48;11.65;;;6.00;;
37593;SDS011;23441;50.856;6.076;2023-06-10T13:31:14;7.28;;;5.80;;
37593;SDS011;23441;50.856;6.076;2023-06-10T13:33:40;7.13;;;6.00;;
37593;SDS011;23441;50.856;6.076;2023-06-10T13:36:05;6.05;;;5.55;;
37593;SDS011;23441;50.856;6.076;2023-06-10T13:38:31;7.57;;;6.38;;
37593;SDS011;23441;50.856;6.076;2023-06-10T13:40:57;9.30;;;6.20;;
37593;SDS011;23441;50.856;6.076;2023-06-10T13:43:22;7.55;;;5.90;;
37593;SDS011;23441;50.856;6.076;2023-06-10T13:45:48;9.07;;;6.63;;
37593;SDS011;23441;50.856;6.076;2023-06-10T13:48:14;7.32;;;6.63;;
37593;SDS011;23441;50.856;6.076;2023-06-10T13:50:40;9.65;;;6.28;;
37593;SDS011;23441;50.856;6.076;2023-06-10T13:53:10;10.98;;;6.80;;
37593;SDS011;23441;50.856;6.076;2023-06-10T13:55:36;7.63;;;6.93;;
37593;SDS011;23441;50.856;6.076;2023-06-10T13:58:02;10.20;;;7.07;;
37593;SDS011;23441;50.856;6.076;2023-06-10T14:00:28;9.32;;;6.80;;
37593;SDS011;23441;50.856;6.076;2023-06-10T14:02:54;9.07;;;6.63;;
37593;SDS011;23441;50.856;6.076;2023-06-10T14:05:19;10.73;;;6.60;;
37593;SDS011;23441;50.856;6.076;2023-06-10T14:07:45;9.98;;;6.85;;
37593;SDS011;23441;50.856;6.076;2023-06-10T14:10:11;7.15;;;6.40;;
37593;SDS011;23441;50.856;6.076;2023-06-10T14:12:36;7.35;;;6.18;;
37593;SDS011;23441;50.856;6.076;2023-06-10T14:15:02;8.05;;;6.85;;
37593;SDS011;23441;50.856;6.076;2023-06-10T14:17:28;7.57;;;6.72;;
37593;SDS011;23441;50.856;6.076;2023-06-10T14:19:53;7.03;;;6.30;;
37593;SDS011;23441;50.856;6.076;2023-06-10T14:22:19;9.20;;;6.25;;
37593;SDS011;23441;50.856;6.076;2023-06-10T14:24:45;7.35;;;6.20;;
37593;SDS011;23441;50.856;6.076;2023-06-10T14:27:12;9.55;;;6.40;;
37593;SDS011;23441;50.856;6.076;2023-06-10T14:29:37;6.82;;;6.22;;
37593;SDS011;23441;50.856;6.076;2023-06-10T14:32:03;8.30;;;6.45;;
37593;SDS011;23441;50.856;6.076;2023-06-10T14:34:29;7.50;;;6.50;;
37593;SDS011;23441;50.856;6.076;2023-06-10T14:36:58;11.07;;;6.70;;
37593;SDS011;23441;50.856;6.076;2023-06-10T14:39:29;7.43;;;6.50;;
37593;SDS011;23441;50.856;6.076;2023-06-10T14:41:54;9.55;;;6.97;;
37593;SDS011;23441;50.856;6.076;2023-06-10T14:44:20;9.35;;;6.68;;
37593;SDS011;23441;50.856;6.076;2023-06-10T14:46:46;7.32;;;6.35;;
37593;SDS011;23441;50.856;6.076;2023-06-10T14:49:11;7.93;;;6.38;;
37593;SDS011;23441;50.856;6.076;2023-06-10T14:51:37;8.48;;;6.38;;
37593;SDS011;23441;50.856;6.076;2023-06-10T14:54:03;11.30;;;7.03;;
37593;SDS011;23441;50.856;6.076;2023-06-10T14:56:28;8.10;;;6.75;;
37593;SDS011;23441;50.856;6.076;2023-06-10T14:58:54;8.38;;;6.43;;
37593;SDS011;23441;50.856;6.076;2023-06-10T15:01:20;6.90;;;6.20;;
37593;SDS011;23441;50.856;6.076;2023-06-10T15:03:46;9.35;;;6.22;;
37593;SDS011;23441;50.856;6.076;2023-06-10T15:06:11;8.10;;;6.80;;
37593;SDS011;23441;50.856;6.076;2023-06-10T15:08:37;7.75;;;6.32;;
37593;SDS011;23441;50.856;6.076;2023-06-10T15:11:03;9.45;;;6.38;;